Time;durP1;ratioP1;P1;durP2;ratioP2;P2;SDS_P1;SDS_P2;PMS_P1;PMS_P2;Temp;Humidity;BMP_temperature;BMP_pressure;BME280_temperature;BME280_humidity;BME280_pressure;Samples;Min_cycle;Max_cycle;Signal;HPM_P1;HPM_P2
2022/11/02 00:01:41;;;;;;;11.20;2.38;;;;;;;13.37;86.02;101132.28;10499481;28;20059;-66
2022/11/02 00:06:44;;;;;;;10.75;2.33;;;;;;;13.27;86.88;101136.25;10510805;28;20051;-68
2022/11/02 00:11:46;;;;;;;6.75;1.92;;;;;;;13.46;85.51;101137.97;10538749;28;20048;-69
2022/11/02 00:16:49;;;;;;;9.65;2.03;;;;;;;13.58;84.54;101133.94;10540614;28;20537;-67
2022/11/02 00:21:51;;;;;;;11.80;2.35;;;;;;;13.54;84.58;101135.03;10539854;28;20239;-65
2022/11/02 00:26:53;;;;;;;;;;;;;;;13.50;84.77;101136.94;10540460;28;20488;-66
2022/11/02 00:31:56;;;;;;;7.60;1.95;;;;;;;13.58;83.84;101145.25;10540259;28;19958;-66
2022/11/02 00:36:58;;;;;;;7.82;1.92;;;;;;;13.66;83.26;101139.63;10539734;28;20137;-66
2022/11/02 00:42:00;;;;;;;6.05;1.98;;;;;;;13.69;82.50;101146.50;10537405;28;20052;-66
2022/11/02 00:47:03;;;;;;;6.68;1.90;;;;;;;13.61;82.41;101145.09;10539742;28;20298;-65
2022/11/02 00:52:04;;;;;;;10.07;2.00;;;;;;;13.54;82.45;101154.19;10539244;28;20090;-66
2022/11/02 00:57:06;;;;;;;9.77;1.90;;;;;;;13.27;85.24;101147.59;10539355;28;20048;-65
2022/11/02 01:02:09;;;;;;;;;;;;;;;13.21;85.48;101150.50;10539067;28;20048;-66
2022/11/02 01:07:12;;;;;;;5.70;1.98;;;;;;;13.08;85.36;101173.88;10538992;28;19966;-69
2022/11/02 01:12:14;;;;;;;7.95;1.90;;;;;;;13.06;84.30;101173.06;10536202;28;20048;-68
2022/11/02 01:17:18;;;;;;;5.55;1.52;;;;;;;12.84;84.68;101175.88;10538269;28;20476;-67
2022/11/02 01:22:20;;;;;;;6.57;1.80;;;;;;;12.70;84.45;101194.84;10538659;28;20105;-66
2022/11/02 01:27:21;;;;;;;11.68;2.10;;;;;;;12.72;82.75;101192.97;10537809;28;20181;-67
2022/11/02 01:32:24;;;;;;;5.97;1.67;;;;;;;12.67;82.36;101184.50;10537881;28;20102;-70
2022/11/02 01:37:26;;;;;;;8.63;1.67;;;;;;;12.50;82.67;101204.44;10538100;28;20047;-72
2022/11/02 01:42:28;;;;;;;12.93;1.88;;;;;;;12.39;83.51;101185.75;10535249;28;20123;-68
2022/11/02 01:47:37;;;;;;;7.20;1.70;;;;;;;12.24;83.84;101193.34;10537884;28;20048;-69
2022/11/02 01:52:40;;;;;;;5.65;2.00;;;;;;;12.28;83.35;101200.16;10537100;28;20131;-67
2022/11/02 01:57:48;;;;;;;8.05;1.65;;;;;;;12.10;85.23;101196.56;10537231;28;20105;-67
2022/11/02 02:03:01;;;;;;;7.13;1.63;;;;;;;12.13;85.20;101198.19;10536751;28;20568;-66
2022/11/02 02:08:04;;;;;;;4.38;1.58;;;;;;;12.16;85.82;101205.91;10536750;28;20093;-71
2022/11/02 02:13:07;;;;;;;8.15;2.08;;;;;;;12.21;85.99;101203.94;10534683;28;20495;-68
2022/11/02 02:18:23;;;;;;;6.70;1.50;;;;;;;12.06;86.14;101206.34;10536547;28;20514;-67
2022/11/02 02:24:20;;;;;;;5.88;1.80;;;;;;;12.01;86.69;101208.25;10536513;28;20044;-68
2022/11/02 02:29:30;;;;;;;7.18;2.13;;;;;;;11.91;87.31;101213.00;10528765;28;20500;-71
2022/11/02 02:34:41;;;;;;;7.43;1.90;;;;;;;11.75;88.47;101199.75;10536138;28;20454;-68
2022/11/02 02:39:56;;;;;;;8.45;2.03;;;;;;;11.70;89.81;101209.53;10533853;28;20054;-66
2022/11/02 02:45:13;;;;;;;7.68;2.38;;;;;;;11.71;89.49;101211.25;10539674;28;20073;-69
2022/11/02 02:50:21;;;;;;;7.35;1.77;;;;;;;11.82;88.62;101206.44;10544137;28;20048;-69
2022/11/02 02:55:32;;;;;;;5.15;1.52;;;;;;;11.75;88.75;101217.19;10543789;28;20458;-70
2022/11/02 03:00:36;;;;;;;5.80;1.55;;;;;;;11.75;88.59;101228.50;10543820;28;20047;-70
2022/11/02 03:05:38;;;;;;;7.97;1.75;;;;;;;11.78;87.51;101228.38;10543888;28;20048;-66
2022/11/02 03:10:47;;;;;;;;;;;;;;;11.66;88.03;101226.25;10541533;28;20078;-68
2022/11/02 03:15:58;;;;;;;9.18;1.95;;;;;;;11.70;87.78;101236.53;10543042;28;19924;-69
2022/11/02 03:21:18;;;;;;;7.90;2.40;;;;;;;11.81;86.60;101232.63;10542977;28;20072;-69
2022/11/02 03:26:29;;;;;;;12.55;2.40;;;;;;;11.79;86.38;101235.31;10542372;28;20105;-73
2022/11/02 03:31:41;;;;;;;9.00;2.20;;;;;;;11.80;86.12;101252.69;10542850;28;20600;-68
2022/11/02 03:36:49;;;;;;;10.63;2.28;;;;;;;11.73;86.32;101251.25;10542755;28;20060;-68
2022/11/02 03:41:54;;;;;;;11.30;2.13;;;;;;;11.63;87.29;101253.38;10540178;28;20048;-70
2022/11/02 03:46:59;;;;;;;9.52;2.00;;;;;;;11.50;88.18;101266.06;10542378;28;20048;-70
2022/11/02 03:52:08;;;;;;;15.07;2.90;;;;;;;11.59;88.08;101259.63;10541559;28;20500;-72
2022/11/02 03:57:18;;;;;;;11.95;2.40;;;;;;;11.71;87.34;101266.16;10541362;28;20458;-70
2022/11/02 04:02:21;;;;;;;8.93;2.45;;;;;;;11.63;87.61;101276.06;10541161;28;20505;-73
2022/11/02 04:08:19;;;;;;;8.35;1.73;;;;;;;11.52;89.54;101294.78;10541051;28;20074;-68
2022/11/02 04:28:52;;;;;;;9.45;2.10;;;;;;;11.44;90.03;101314.25;10540007;28;20040;-71
2022/11/02 04:33:57;;;;;;;15.88;2.72;;;;;;;11.39;90.89;101331.00;10540018;28;20495;-71
2022/11/02 04:38:59;;;;;;;14.95;2.63;;;;;;;11.41;90.68;101335.25;10537336;28;20117;-68
2022/11/02 04:44:01;;;;;;;13.85;2.85;;;;;;;11.40;90.42;101338.75;10540297;28;20499;-68
2022/11/02 04:49:05;;;;;;;11.75;2.05;;;;;;;11.40;90.82;101356.22;10539364;28;20536;-69
2022/11/02 04:54:07;;;;;;;8.35;2.10;;;;;;;11.31;90.70;101368.72;10539267;28;20105;-67
2022/11/02 04:59:09;;;;;;;11.15;2.40;;;;;;;11.31;91.46;101371.34;10539404;28;20094;-68
2022/11/02 05:04:12;;;;;;;12.45;2.40;;;;;;;11.24;91.75;101374.22;10538608;28;20106;-68
2022/11/02 05:09:13;;;;;;;8.98;2.30;;;;;;;11.30;90.45;101382.66;10535615;28;20543;-67
2022/11/02 05:14:15;;;;;;;8.82;2.80;;;;;;;11.42;90.33;101388.34;10538307;28;20043;-66
2022/11/02 05:19:18;;;;;;;8.32;2.63;;;;;;;11.48;89.62;101402.97;10538144;28;20113;-69
2022/11/02 05:24:20;;;;;;;12.20;2.65;;;;;;;11.48;89.45;101408.19;10538349;28;20122;-69
2022/11/02 05:29:21;;;;;;;11.20;2.42;;;;;;;11.47;88.71;101412.59;10538136;28;20066;-70
2022/11/02 05:34:25;;;;;;;9.52;2.05;;;;;;;11.31;89.26;101423.59;10537591;28;20472;-72
2022/11/02 05:39:27;;;;;;;11.80;2.38;;;;;;;11.24;89.33;101423.84;10535387;28;20047;-67
2022/11/02 05:44:28;;;;;;;8.90;2.20;;;;;;;11.09;90.07;101441.81;10533045;28;20044;-68
2022/11/02 05:49:32;;;;;;;13.98;2.80;;;;;;;11.11;90.78;101458.25;10528447;28;20043;-70
2022/11/02 05:54:34;;;;;;;10.27;1.92;;;;;;;10.97;90.85;101460.47;10513097;28;20051;-66
2022/11/02 05:59:36;;;;;;;8.77;1.88;;;;;;;10.78;92.24;101461.13;10504632;28;20054;-69
2022/11/02 06:04:39;;;;;;;12.65;2.45;;;;;;;10.68;93.27;101465.81;10499716;28;20512;-71
2022/11/02 06:09:41;;;;;;;16.30;2.60;;;;;;;10.53;92.95;101483.66;10493451;28;20105;-68
2022/11/02 06:14:44;;;;;;;7.57;1.85;;;;;;;10.60;93.38;101483.47;10496724;28;20049;-68
2022/11/02 06:19:47;;;;;;;7.95;1.88;;;;;;;10.54;93.73;101493.19;10498172;28;20070;-66
2022/11/02 06:24:49;;;;;;;14.45;2.80;;;;;;;10.44;93.53;101499.59;10503222;28;20063;-67
2022/11/02 06:29:50;;;;;;;10.50;2.53;;;;;;;10.40;94.88;101516.25;10502845;28;20040;-70
2022/11/02 06:34:53;;;;;;;6.00;1.70;;;;;;;10.35;95.35;101520.72;10502992;28;20041;-68
2022/11/02 06:39:55;;;;;;;11.40;2.00;;;;;;;10.34;95.25;101545.97;10498870;28;20067;-67
2022/11/02 06:45:01;;;;;;;13.07;2.35;;;;;;;10.22;95.87;101556.75;10501557;28;20099;-69
2022/11/02 06:50:05;;;;;;;10.52;2.58;;;;;;;10.24;96.19;101579.31;10500953;28;20056;-69
2022/11/02 06:55:08;;;;;;;14.52;2.60;;;;;;;10.21;95.55;101586.34;10501206;28;20067;-68
2022/11/02 07:00:16;;;;;;;12.00;2.30;;;;;;;10.21;95.67;101602.88;10501403;28;20053;-69
2022/11/02 07:05:20;;;;;;;7.90;1.83;;;;;;;10.17;96.27;101616.91;10501452;28;20518;-67
2022/11/02 07:10:22;;;;;;;16.02;2.78;;;;;;;10.19;96.44;101630.75;10499244;28;20094;-68
2022/11/02 07:15:26;;;;;;;;;;;;;;;10.15;96.70;101637.81;10502114;28;20052;-68
2022/11/02 07:20:30;;;;;;;6.22;1.90;;;;;;;10.12;97.62;101660.50;10501444;28;19965;-68
2022/11/02 07:25:33;;;;;;;9.05;2.47;;;;;;;10.30;95.65;101665.22;10501137;28;20057;-67
2022/11/02 07:30:35;;;;;;;10.38;2.65;;;;;;;10.27;96.51;101667.91;10500219;28;20048;-72
2022/11/02 07:35:38;;;;;;;7.20;2.17;;;;;;;10.34;96.04;101671.22;10501189;28;20063;-69
2022/11/02 07:40:40;;;;;;;6.82;2.13;;;;;;;10.45;95.78;101676.16;10497785;28;20052;-69
2022/11/02 07:45:41;;;;;;;;;;;;;;;10.42;96.28;101692.72;10501111;28;20045;-69
2022/11/02 07:50:44;;;;;;;13.40;2.40;;;;;;;10.51;96.33;101696.84;10500129;28;19921;-69
2022/11/02 07:55:46;;;;;;;14.93;2.35;;;;;;;10.68;96.02;101695.53;10500215;28;20537;-70
2022/11/02 08:00:48;;;;;;;7.55;1.85;;;;;;;10.84;95.57;101708.97;10525271;28;20135;-70
2022/11/02 08:05:51;;;;;;;10.30;2.47;;;;;;;11.38;92.53;101700.34;10530679;28;20090;-69
2022/11/02 08:10:53;;;;;;;10.95;1.85;;;;;;;11.64;91.07;101707.38;10537655;28;20044;-68
2022/11/02 08:15:55;;;;;;;9.88;2.67;;;;;;;12.10;89.38;101704.97;10540789;28;20414;-68
2022/11/02 08:20:59;;;;;;;12.38;3.08;;;;;;;12.15;88.92;101711.81;10540281;28;20465;-69
2022/11/02 08:26:01;;;;;;;8.60;2.17;;;;;;;12.62;88.09;101727.56;10540101;28;20052;-70
2022/11/02 08:31:03;;;;;;;14.35;3.05;;;;;;;13.13;86.81;101726.53;10539683;28;20064;-73
2022/11/02 08:36:07;;;;;;;10.15;2.40;;;;;;;12.56;86.17;101734.78;10540246;28;20040;-71
2022/11/02 08:41:09;;;;;;;13.23;2.97;;;;;;;12.71;85.07;101735.97;10536555;28;20108;-70
2022/11/02 08:46:10;;;;;;;12.93;2.83;;;;;;;13.28;83.61;101738.19;10539141;28;20048;-71
2022/11/02 08:51:15;;;;;;;10.18;2.50;;;;;;;13.03;83.29;101747.00;10539265;28;20097;-68
2022/11/02 08:56:16;;;;;;;11.00;2.38;;;;;;;13.16;82.89;101738.66;10538959;28;20454;-66
2022/11/02 09:01:18;;;;;;;13.43;3.38;;;;;;;13.57;82.79;101757.19;10528261;28;20085;-67
2022/11/02 09:06:21;;;;;;;9.50;2.45;;;;;;;13.30;80.52;101757.31;10538489;28;20538;-66
2022/11/02 09:11:23;;;;;;;11.35;2.70;;;;;;;13.67;78.59;101756.78;10535538;28;20393;-66
2022/11/02 09:16:24;;;;;;;9.45;2.65;;;;;;;13.99;81.04;101758.06;10538143;28;20055;-65
2022/11/02 09:21:27;;;;;;;;;;;;;;;13.95;78.53;101760.88;10537959;28;20056;-63
2022/11/02 09:26:30;;;;;;;12.10;2.85;;;;;;;13.90;78.46;101769.81;10537738;28;19920;-69
2022/11/02 09:31:32;;;;;;;9.82;2.70;;;;;;;13.77;78.59;101768.63;10537670;28;20055;-62
2022/11/02 09:36:35;;;;;;;13.88;2.85;;;;;;;13.68;79.62;101774.25;10537240;28;20048;-65
2022/11/02 09:41:43;;;;;;;8.88;2.60;;;;;;;13.93;78.92;101778.47;10535187;28;20045;-65
2022/11/02 09:46:47;;;;;;;10.63;2.70;;;;;;;13.11;81.32;101773.75;10536873;28;20059;-64
2022/11/02 09:51:54;;;;;;;11.32;3.10;;;;;;;12.92;81.14;101780.59;10537228;28;20040;-66
2022/11/02 09:57:02;;;;;;;10.57;2.30;;;;;;;13.23;80.18;101784.69;10537496;28;20476;-66
2022/11/02 10:02:22;;;;;;;14.65;3.42;;;;;;;14.66;75.61;101789.34;10536994;28;20044;-65
2022/11/02 10:07:49;;;;;;;17.85;2.78;;;;;;;14.06;75.19;101792.78;10536867;28;20048;-66
2022/11/02 10:13:06;;;;;;;10.25;2.83;;;;;;;13.93;75.76;101797.72;10534378;28;20044;-66
2022/11/02 10:18:18;;;;;;;14.50;3.20;;;;;;;15.45;73.61;101808.56;10536751;28;20389;-64
2022/11/02 10:23:30;;;;;;;15.25;2.88;;;;;;;14.88;73.87;101819.94;10536595;28;20044;-64
2022/11/02 10:28:37;;;;;;;10.48;2.90;;;;;;;15.11;72.22;101819.78;10536452;28;20576;-68
2022/11/02 10:33:38;;;;;;;14.30;3.03;;;;;;;14.95;70.09;101820.50;10536224;28;20110;-66
2022/11/02 10:39:01;;;;;;;11.63;2.70;;;;;;;15.49;67.57;101813.66;10536110;28;20097;-65
2022/11/02 10:44:32;;;;;;;9.63;2.40;;;;;;;15.32;67.22;101810.06;10536032;28;20644;-65
2022/11/02 10:50:02;;;;;;;9.90;2.50;;;;;;;15.65;66.69;101819.91;10536441;28;20048;-66
2022/11/02 10:55:19;;;;;;;9.43;2.88;;;;;;;15.52;66.44;101829.31;10536279;28;20096;-66
2022/11/02 11:00:25;;;;;;;13.20;2.72;;;;;;;15.88;65.46;101831.06;10536175;28;20116;-67
2022/11/02 11:05:28;;;;;;;9.40;2.65;;;;;;;15.99;63.57;101832.34;10537911;28;20567;-68
2022/11/02 11:10:37;;;;;;;10.02;2.55;;;;;;;15.89;63.19;101832.78;10541547;28;20068;-67
2022/11/02 11:15:39;;;;;;;9.40;2.55;;;;;;;15.91;60.49;101836.19;10543152;28;20491;-66
2022/11/02 11:20:42;;;;;;;10.35;2.40;;;;;;;15.73;63.50;101839.75;10543283;28;20070;-66
2022/11/02 11:25:55;;;;;;;6.78;2.28;;;;;;;15.43;63.27;101847.22;10542968;28;20056;-68
2022/11/02 11:31:12;;;;;;;6.55;1.80;;;;;;;15.49;62.96;101829.44;10542637;28;20048;-65
2022/11/02 11:36:30;;;;;;;7.53;2.33;;;;;;;15.79;63.20;101821.00;10542740;28;20525;-65
2022/11/02 11:41:39;;;;;;;8.27;2.35;;;;;;;15.84;64.88;101808.47;10540440;28;20052;-65
2022/11/02 11:46:46;;;;;;;9.63;2.50;;;;;;;16.33;61.36;101809.59;10542830;28;20105;-69
2022/11/02 11:51:52;;;;;;;10.38;2.42;;;;;;;15.23;65.17;101823.66;10542304;28;20125;-65
2022/11/02 11:56:58;;;;;;;14.32;2.80;;;;;;;14.46;67.44;101823.50;10542070;28;20097;-65
2022/11/02 12:02:01;;;;;;;10.88;2.60;;;;;;;14.55;67.37;101833.63;10541737;28;20094;-64
2022/11/02 12:07:32;;;;;;;11.05;2.53;;;;;;;14.46;67.65;101834.88;10541106;28;20044;-64
2022/11/02 12:12:55;;;;;;;12.85;2.60;;;;;;;14.82;69.32;101819.38;10538672;28;20496;-65
2022/11/02 12:18:20;;;;;;;13.80;2.70;;;;;;;16.12;67.10;101796.59;10539815;28;20066;-64
2022/11/02 12:23:59;;;;;;;12.25;2.60;;;;;;;15.68;67.96;101787.31;10540792;28;20043;-64
2022/11/02 12:29:21;;;;;;;12.25;2.80;;;;;;;14.25;70.99;101784.13;10540505;28;20071;-64
2022/11/02 12:35:00;;;;;;;11.05;2.55;;;;;;;14.50;70.19;101777.78;10540143;28;20495;-66
2022/11/02 12:40:24;;;;;;;13.40;2.55;;;;;;;15.23;68.18;101781.59;10537547;28;20051;-65
2022/11/02 12:45:46;;;;;;;7.90;2.20;;;;;;;14.83;69.04;101774.63;10540080;28;20453;-67
2022/11/02 12:51:00;;;;;;;8.48;2.50;;;;;;;14.84;68.89;101771.06;10539687;28;20044;-65
2022/11/02 12:56:08;;;;;;;14.02;2.95;;;;;;;14.44;70.38;101768.41;10539294;28;20492;-67
2022/11/02 13:01:24;;;;;;;12.48;2.40;;;;;;;14.18;71.41;101774.81;10539002;28;20048;-66
2022/11/02 13:06:34;;;;;;;11.20;2.42;;;;;;;14.46;71.04;101760.47;10538884;28;20047;-64
2022/11/02 13:11:41;;;;;;;11.13;2.50;;;;;;;14.95;70.18;101756.59;10536129;28;20044;-64
2022/11/02 13:16:53;;;;;;;10.90;2.45;;;;;;;15.09;67.71;101742.81;10538370;28;20052;-66
2022/11/02 13:21:58;;;;;;;10.65;2.72;;;;;;;15.71;66.22;101735.38;10538157;28;20184;-64
2022/11/02 13:27:06;;;;;;;8.15;2.30;;;;;;;14.58;69.27;101746.81;10537583;28;20052;-65
2022/11/02 13:32:22;;;;;;;11.27;2.83;;;;;;;14.93;69.55;101735.63;10538099;28;20044;-66
2022/11/02 13:37:35;;;;;;;9.23;2.45;;;;;;;14.97;68.13;101744.22;10537523;28;20060;-65
2022/11/02 13:43:20;;;;;;;12.63;2.50;;;;;;;15.14;67.63;101725.88;10515165;28;20048;-66
2022/11/02 13:48:55;;;;;;;11.15;2.65;;;;;;;14.48;70.65;101727.13;10522619;28;20072;-69
2022/11/02 13:54:08;;;;;;;9.15;2.17;;;;;;;14.25;72.22;101719.38;10494799;28;20518;-65
2022/11/02 13:59:20;;;;;;;9.55;2.50;;;;;;;14.35;72.27;101722.44;10495140;28;20051;-65
2022/11/02 14:04:24;;;;;;;9.18;2.35;;;;;;;14.36;71.05;101713.63;10529886;28;20172;-64
2022/11/02 14:09:35;;;;;;;10.68;2.25;;;;;;;14.42;69.97;101707.25;10534953;28;20545;-68
2022/11/02 14:14:37;;;;;;;10.00;2.03;;;;;;;14.21;71.52;101714.31;10536726;28;20054;-68
2022/11/02 14:20:03;;;;;;;12.25;2.65;;;;;;;14.18;72.05;101703.94;10536359;28;20659;-67
2022/11/02 14:25:16;;;;;;;12.57;2.55;;;;;;;14.08;72.08;101709.59;10536400;28;20056;-64
2022/11/02 14:30:46;;;;;;;10.05;2.40;;;;;;;13.77;72.76;101700.41;10536812;28;20106;-67
2022/11/02 14:35:59;;;;;;;12.40;2.72;;;;;;;13.68;72.79;101698.19;10536198;28;20492;-65
2022/11/02 14:41:23;;;;;;;15.35;2.50;;;;;;;13.51;72.82;101694.47;10537130;28;20105;-68
2022/11/02 14:46:48;;;;;;;10.85;2.40;;;;;;;13.48;73.45;101692.84;10544566;28;20056;-64
2022/11/02 14:52:03;;;;;;;12.18;2.30;;;;;;;13.59;73.05;101692.38;10544143;28;20389;-65
2022/11/02 14:57:16;;;;;;;16.02;3.65;;;;;;;13.54;73.37;101677.78;10544010;28;20061;-65
2022/11/02 15:02:24;;;;;;;13.55;2.15;;;;;;;13.37;74.42;101672.28;10544137;28;20052;-69
2022/11/02 15:07:36;;;;;;;10.82;2.30;;;;;;;13.34;73.31;101664.53;10543505;28;20465;-67
2022/11/02 15:12:39;;;;;;;9.95;2.55;;;;;;;13.30;72.76;101660.34;10541042;28;20131;-64
2022/11/02 15:18:20;;;;;;;10.23;2.22;;;;;;;13.18;72.76;101651.22;10543711;28;20052;-68
2022/11/02 15:23:29;;;;;;;9.30;1.98;;;;;;;13.13;72.50;101646.16;10543173;28;20157;-66
2022/11/02 15:28:34;;;;;;;11.52;2.78;;;;;;;13.02;72.64;101637.88;10542488;28;20404;-67
2022/11/02 15:33:42;;;;;;;8.02;2.05;;;;;;;12.94;72.72;101632.09;10542770;28;20136;-67
2022/11/02 15:38:51;;;;;;;11.68;2.30;;;;;;;12.87;72.97;101637.56;10542307;28;20070;-66
2022/11/02 15:44:15;;;;;;;9.77;2.40;;;;;;;12.70;74.19;101640.00;10539848;28;20561;-68
2022/11/02 15:49:36;;;;;;;8.70;2.33;;;;;;;12.50;76.15;101639.00;10541775;28;20491;-66
2022/11/02 15:55:00;;;;;;;13.10;2.60;;;;;;;12.32;77.12;101641.38;10541821;28;20063;-66
2022/11/02 16:00:20;;;;;;;14.43;2.53;;;;;;;12.20;77.58;101639.22;10542088;28;20086;-68
2022/11/02 16:05:25;;;;;;;12.25;2.78;;;;;;;12.06;77.85;101631.88;10541518;28;20500;-66
2022/11/02 16:10:31;;;;;;;11.15;2.60;;;;;;;11.97;78.30;101627.78;10539142;28;20048;-71
2022/11/02 16:15:37;;;;;;;11.73;2.92;;;;;;;11.95;77.59;101627.00;10540972;28;20055;-67
2022/11/02 16:20:39;;;;;;;8.43;2.67;;;;;;;11.94;77.90;101615.69;10541138;28;20090;-68
2022/11/02 16:25:47;;;;;;;10.05;2.38;;;;;;;11.79;79.07;101616.22;10540514;28;20048;-65
2022/11/02 16:31:00;;;;;;;9.52;2.17;;;;;;;11.71;78.80;101608.66;10540021;28;20117;-64
2022/11/02 16:36:02;;;;;;;12.20;2.13;;;;;;;11.59;79.41;101618.63;10540446;28;20102;-66
2022/11/02 16:41:09;;;;;;;8.65;2.60;;;;;;;11.60;79.58;101611.63;10537286;28;20511;-67
2022/11/02 16:46:16;;;;;;;10.02;2.65;;;;;;;11.52;79.71;101604.06;10540340;28;20044;-66
2022/11/02 16:51:19;;;;;;;15.10;2.90;;;;;;;11.52;79.07;101598.84;10539324;28;20043;-67
2022/11/02 16:56:31;;;;;;;6.47;2.30;;;;;;;11.39;81.02;101597.56;10539375;28;20124;-65
2022/11/02 17:01:37;;;;;;;7.63;2.28;;;;;;;11.36;80.25;101605.50;10539430;28;20044;-69
2022/11/02 17:06:40;;;;;;;9.07;2.53;;;;;;;11.30;80.08;101604.78;10538373;28;20052;-68
2022/11/02 17:11:44;;;;;;;7.25;2.30;;;;;;;11.31;79.72;101603.88;10536484;28;20070;-65
2022/11/02 17:17:04;;;;;;;10.20;3.10;;;;;;;11.26;79.91;101603.16;10538477;28;20044;-66
2022/11/02 17:22:15;;;;;;;11.68;3.00;;;;;;;11.27;79.89;101610.13;10538692;28;20101;-67
2022/11/02 17:27:27;;;;;;;7.80;2.78;;;;;;;11.22;79.16;101598.94;10537922;28;20125;-67
2022/11/02 17:32:29;;;;;;;16.20;3.33;;;;;;;11.15;79.25;101602.69;10538156;28;20055;-67
2022/11/02 17:37:32;;;;;;;11.75;3.03;;;;;;;11.10;80.38;101604.59;10536650;28;20302;-67
2022/11/02 17:47:56;;;;;;;8.68;2.53;;;;;;;10.91;80.97;101598.19;10535992;28;20549;-66
2022/11/02 17:53:01;;;;;;;10.73;2.70;;;;;;;10.94;80.70;101598.09;10535722;28;20043;-65
2022/11/02 17:58:06;;;;;;;15.23;3.05;;;;;;;10.99;80.12;101597.97;10536109;28;20074;-68
2022/11/02 18:03:17;;;;;;;13.52;3.58;;;;;;;10.96;81.30;101590.22;10536092;28;20094;-66
2022/11/02 18:08:19;;;;;;;10.98;2.65;;;;;;;10.90;81.02;101579.97;10535716;28;20541;-66
2022/11/02 18:13:24;;;;;;;6.40;2.58;;;;;;;10.88;80.16;101573.94;10532956;28;20068;-65
2022/11/02 18:18:25;;;;;;;9.43;2.40;;;;;;;10.79;81.36;101581.19;10535395;28;20098;-65
2022/11/02 18:23:27;;;;;;;7.93;2.40;;;;;;;10.73;82.05;101562.22;10535631;28;20097;-67
2022/11/02 18:28:30;;;;;;;8.43;2.58;;;;;;;10.75;81.48;101555.22;10534807;28;20503;-67
2022/11/02 18:33:34;;;;;;;9.13;2.70;;;;;;;10.73;81.33;101551.78;10515022;28;20114;-68
2022/11/02 18:38:36;;;;;;;8.32;2.60;;;;;;;10.73;82.22;101555.25;10509869;28;20490;-66
2022/11/02 18:43:40;;;;;;;9.10;3.00;;;;;;;10.63;83.04;101546.00;10532907;28;20104;-66
2022/11/02 18:48:42;;;;;;;11.10;3.25;;;;;;;10.58;82.92;101538.31;10535847;28;20067;-70
2022/11/02 18:53:45;;;;;;;10.73;3.05;;;;;;;10.51;83.80;101529.81;10494781;28;20576;-65
2022/11/02 18:58:50;;;;;;;8.13;3.38;;;;;;;10.49;84.40;101529.03;10526195;28;20127;-66
2022/11/02 19:03:54;;;;;;;14.68;3.63;;;;;;;10.43;84.27;101526.56;10535302;28;20415;-68
2022/11/02 19:14:17;;;;;;;10.05;3.10;;;;;;;10.38;84.49;101510.19;10535415;28;20044;-64
2022/11/02 19:19:19;;;;;;;10.73;3.15;;;;;;;10.34;84.21;101492.94;10535383;28;20040;-67
2022/11/02 19:24:21;;;;;;;10.13;3.15;;;;;;;10.28;85.23;101488.75;10535063;28;20504;-68
2022/11/02 19:29:24;;;;;;;10.02;3.40;;;;;;;10.37;85.09;101482.41;10541326;28;20542;-68
2022/11/02 19:34:25;;;;;;;8.15;2.78;;;;;;;10.61;84.71;101470.34;10537833;28;20048;-66
2022/11/02 19:39:27;;;;;;;12.48;3.42;;;;;;;10.56;85.56;101448.78;10539710;28;20128;-68
2022/11/02 19:44:31;;;;;;;10.57;3.40;;;;;;;10.55;86.13;101442.69;10541486;28;20048;-65
2022/11/02 19:49:32;;;;;;;12.95;3.80;;;;;;;10.56;85.95;101436.59;10541049;28;20040;-69
2022/11/02 19:54:35;;;;;;;13.18;3.50;;;;;;;10.58;86.38;101431.31;10540841;28;20104;-67
2022/11/02 19:59:38;;;;;;;8.18;2.88;;;;;;;10.59;86.47;101430.41;10540399;28;20081;-72
2022/11/02 20:04:40;;;;;;;9.43;3.20;;;;;;;10.60;87.18;101418.22;10540086;28;20552;-74
2022/11/02 20:09:43;;;;;;;11.95;3.85;;;;;;;10.62;87.33;101414.66;10537937;28;20044;-66
2022/11/02 20:14:46;;;;;;;11.27;3.13;;;;;;;10.71;86.49;101408.25;10540000;28;20112;-71
2022/11/02 20:19:48;;;;;;;10.27;3.30;;;;;;;10.62;87.71;101400.75;10539452;28;20040;-69
2022/11/02 20:24:49;;;;;;;12.40;2.97;;;;;;;10.58;88.02;101404.34;10539130;28;20089;-69
2022/11/02 20:29:52;;;;;;;15.82;2.97;;;;;;;10.54;88.92;101401.84;10539025;28;20090;-65
2022/11/02 20:34:54;;;;;;;9.57;2.67;;;;;;;10.54;89.17;101411.44;10538974;28;20517;-66
2022/11/02 20:39:55;;;;;;;14.25;3.70;;;;;;;10.63;88.61;101402.44;10535248;28;20044;-64
2022/11/02 20:44:58;;;;;;;13.32;3.60;;;;;;;10.71;87.64;101400.41;10538505;28;20106;-72
2022/11/02 20:50:00;;;;;;;10.70;2.72;;;;;;;10.74;88.04;101391.66;10538218;28;20534;-66
2022/11/02 20:55:02;;;;;;;12.88;3.25;;;;;;;10.69;87.29;101394.41;10538138;28;20102;-66
2022/11/02 21:00:07;;;;;;;13.50;3.10;;;;;;;10.62;88.85;101387.69;10537964;28;20115;-68
2022/11/02 21:05:09;;;;;;;8.73;2.80;;;;;;;10.58;88.42;101375.66;10537938;28;20048;-68
2022/11/02 21:10:11;;;;;;;13.68;2.95;;;;;;;10.60;89.03;101371.25;10534992;28;20105;-71
2022/11/02 21:15:14;;;;;;;11.05;3.22;;;;;;;10.64;88.38;101365.84;10537412;28;20101;-69
2022/11/02 21:20:17;;;;;;;13.43;2.92;;;;;;;10.61;88.42;101359.88;10537784;28;20067;-71
2022/11/02 21:25:18;;;;;;;13.40;2.90;;;;;;;10.61;88.84;101354.66;10538183;28;20508;-66
2022/11/02 21:30:22;;;;;;;7.43;2.13;;;;;;;10.71;88.46;101360.41;10538529;28;20048;-67
2022/11/02 21:35:25;;;;;;;9.75;2.80;;;;;;;10.69;89.07;101353.50;10537739;28;20488;-67
2022/11/02 21:40:27;;;;;;;16.38;3.65;;;;;;;10.62;89.74;101351.16;10535377;28;20429;-66
2022/11/02 21:45:31;;;;;;;12.02;2.88;;;;;;;10.68;90.32;101356.16;10538584;28;20097;-68
2022/11/02 21:50:33;;;;;;;14.07;2.67;;;;;;;10.81;89.57;101348.72;10537563;28;20101;-69
2022/11/02 21:55:36;;;;;;;13.20;3.80;;;;;;;10.71;90.43;101345.59;10537137;28;20411;-68
2022/11/02 22:05:58;;;;;;;8.07;2.15;;;;;;;10.88;90.83;101331.13;10537095;28;20138;-70
2022/11/02 22:10:59;;;;;;;14.90;3.17;;;;;;;10.82;91.03;101322.56;10534181;28;20048;-69
2022/11/02 22:16:23;;;;;;;13.82;2.60;;;;;;;10.86;90.91;101322.47;10536835;28;20048;-68
2022/11/02 22:21:27;;;;;;;9.93;2.60;;;;;;;10.86;91.26;101309.41;10536586;28;20124;-67
2022/11/02 22:26:31;;;;;;;13.90;3.30;;;;;;;10.79;91.58;101301.81;10536764;28;20056;-71
2022/11/02 22:31:37;;;;;;;11.93;3.00;;;;;;;10.80;92.41;101293.06;10536397;28;20109;-65
2022/11/02 22:36:41;;;;;;;16.20;3.13;;;;;;;10.77;92.22;101282.75;10536256;28;20488;-66
2022/11/02 22:41:45;;;;;;;19.88;3.45;;;;;;;10.67;92.84;101260.47;10533831;28;20495;-66
2022/11/02 22:46:51;;;;;;;11.95;3.28;;;;;;;10.67;93.85;101247.41;10536568;28;20047;-69
2022/11/02 22:51:52;;;;;;;10.50;3.22;;;;;;;10.77;94.16;101259.25;10536679;28;20445;-72
2022/11/02 22:56:55;;;;;;;8.80;2.88;;;;;;;10.71;94.09;101253.41;10536231;28;20048;-67
2022/11/02 23:01:58;;;;;;;12.48;3.35;;;;;;;10.78;94.18;101241.84;10538841;28;20040;-70
2022/11/02 23:07:00;;;;;;;13.13;3.20;;;;;;;10.76;94.58;101246.25;10543883;28;20093;-69
2022/11/02 23:12:01;;;;;;;21.02;3.60;;;;;;;10.84;95.14;101248.59;10540931;28;20454;-68
2022/11/02 23:17:04;;;;;;;10.18;2.55;;;;;;;10.74;95.08;101229.81;10543613;28;20048;-70
2022/11/02 23:27:31;;;;;;;12.47;2.57;;;;;;;10.77;95.62;101220.09;10542940;28;20056;-68
2022/11/02 23:32:34;;;;;;;14.27;3.60;;;;;;;10.78;95.50;101237.44;10543718;28;20794;-69
2022/11/02 23:37:38;;;;;;;12.07;2.85;;;;;;;10.73;96.01;101228.94;10542547;28;20116;-71
2022/11/02 23:42:40;;;;;;;10.40;2.92;;;;;;;10.75;96.15;101216.69;10540394;28;20097;-67
2022/11/02 23:48:02;;;;;;;11.75;3.17;;;;;;;10.82;95.14;101217.31;10542056;28;20424;-71
2022/11/02 23:58:24;;;;;;;13.95;2.70;;;;;;;10.76;95.83;101212.31;10541852;28;20048;-69
